createdAt,value
2022-12-09T00:04:58.612Z,89.63
2022-12-09T00:09:59.576Z,89.16
2022-12-09T00:15:04.465Z,88.69
2022-12-09T00:20:06.576Z,88.82
2022-12-09T00:25:12.227Z,89.10
2022-12-09T00:30:14.552Z,89.39
2022-12-09T00:35:13.694Z,89.21
2022-12-09T00:40:15.397Z,89.36
2022-12-09T00:45:15.961Z,89.32
2022-12-09T00:50:15.028Z,88.97
2022-12-09T00:55:17.420Z,89.15
2022-12-09T01:00:21.066Z,88.72
2022-12-09T01:05:20.163Z,88.62
2022-12-09T01:10:22.974Z,88.92
2022-12-09T01:15:32.650Z,89.37
2022-12-09T01:20:36.918Z,89.42
2022-12-09T01:25:39.469Z,90.80
2022-12-09T01:30:40.691Z,90.75
2022-12-09T01:35:44.749Z,90.19
2022-12-09T01:40:49.016Z,89.96
2022-12-09T01:45:49.742Z,89.17
2022-12-09T01:50:54.389Z,89.42
2022-12-09T01:55:56.977Z,89.04
2022-12-09T02:00:58.035Z,89.73
2022-12-09T02:05:57.408Z,88.97
2022-12-09T02:11:09.183Z,88.79
2022-12-09T02:16:18.977Z,88.58
2022-12-09T02:21:25.952Z,88.92
2022-12-09T02:26:39.807Z,89.49
2022-12-09T02:32:11.571Z,88.87
2022-12-09T02:37:22.630Z,89.37
2022-12-09T02:42:30.090Z,89.44
2022-12-09T02:47:37.031Z,89.08
2022-12-09T02:52:46.789Z,88.30
2022-12-09T02:57:47.384Z,89.73
2022-12-09T03:02:51.516Z,89.28
2022-12-09T03:08:01.812Z,89.31
2022-12-09T03:13:06.916Z,89.39
2022-12-09T03:18:11.060Z,88.80
2022-12-09T03:23:16.274Z,89.25
2022-12-09T03:28:22.931Z,88.95
2022-12-09T03:33:24.526Z,88.93
2022-12-09T03:38:33.212Z,88.97
2022-12-09T03:43:36.583Z,88.18
2022-12-09T03:48:35.916Z,88.29
2022-12-09T03:53:44.380Z,88.27
2022-12-09T03:58:46.509Z,88.44
2022-12-09T04:03:46.579Z,88.56
2022-12-09T04:08:49.568Z,88.40
2022-12-09T04:13:48.875Z,89.78
2022-12-09T04:18:51.280Z,90.14
2022-12-09T04:23:52.185Z,90.78
2022-12-09T04:28:52.075Z,91.09
2022-12-09T04:33:51.446Z,90.80
2022-12-09T04:38:51.891Z,94.48
2022-12-09T04:43:51.050Z,94.75
2022-12-09T04:48:50.523Z,93.14
2022-12-09T04:53:50.037Z,92.39
2022-12-09T04:58:51.859Z,93.24
2022-12-09T05:03:55.004Z,95.01
2022-12-09T05:08:54.961Z,93.05
2022-12-09T05:13:58.671Z,95.44
2022-12-09T05:19:01.731Z,95.64
2022-12-09T05:24:04.432Z,93.74
2022-12-09T05:29:06.504Z,94.00
2022-12-09T05:34:09.376Z,93.12
2022-12-09T05:39:15.845Z,91.90
2022-12-09T05:44:18.405Z,91.79
2022-12-09T05:49:18.518Z,91.84
2022-12-09T05:54:17.920Z,100.00
2022-12-09T05:59:18.974Z,100.00
2022-12-09T06:04:20.128Z,97.67
2022-12-09T06:09:20.355Z,95.81
2022-12-09T06:14:21.432Z,96.70
2022-12-09T06:19:21.013Z,96.72
2022-12-09T06:24:22.531Z,97.58
2022-12-09T06:29:23.493Z,97.30
2022-12-09T06:34:23.832Z,97.11
2022-12-09T06:39:23.420Z,96.25
2022-12-09T06:44:24.545Z,96.67
2022-12-09T06:49:24.061Z,96.72
2022-12-09T06:54:23.693Z,96.08
2022-12-09T06:59:25.462Z,96.64
2022-12-09T07:04:27.044Z,96.46
2022-12-09T07:09:26.896Z,94.67
2022-12-09T07:14:27.678Z,93.65
2022-12-09T07:19:29.292Z,93.00
2022-12-09T07:24:29.764Z,92.76
2022-12-09T07:29:33.623Z,92.75
2022-12-09T07:34:33.314Z,93.38
2022-12-09T07:40:01.709Z,92.43
2022-12-09T07:45:40.229Z,91.68
2022-12-09T07:52:08.513Z,90.60
2022-12-09T07:57:11.393Z,89.70
2022-12-09T08:02:14.762Z,89.24
2022-12-09T08:07:16.465Z,88.98
2022-12-09T08:12:19.577Z,88.06
2022-12-09T08:17:24.596Z,87.65
2022-12-09T08:22:28.354Z,87.82
2022-12-09T08:54:53.606Z,100.00
2022-12-09T08:59:57.854Z,99.32
2022-12-09T09:05:01.654Z,95.94
2022-12-09T09:10:03.596Z,93.81
2022-12-09T09:15:04.608Z,92.21
2022-12-09T09:20:09.299Z,90.57
2022-12-09T09:25:17.053Z,89.56
2022-12-09T09:30:19.914Z,88.87
2022-12-09T09:35:19.975Z,87.25
2022-12-09T09:40:29.742Z,87.42
2022-12-09T09:45:31.992Z,86.92
2022-12-09T09:50:37.810Z,86.30
2022-12-09T09:55:47.574Z,85.89
2022-12-09T10:00:56.899Z,85.18
2022-12-09T10:06:02.884Z,84.57
2022-12-09T10:11:19.551Z,83.99
2022-12-09T10:16:23.972Z,84.95
2022-12-09T10:21:43.471Z,84.66
2022-12-09T10:27:16.631Z,84.73
2022-12-09T10:32:29.926Z,100.00
2022-12-09T10:37:35.345Z,92.70
2022-12-09T10:43:10.998Z,89.74
2022-12-09T10:48:27.928Z,85.12
2022-12-09T10:53:35.384Z,85.60
2022-12-09T10:58:35.907Z,85.43
2022-12-09T11:03:55.884Z,84.71
2022-12-09T11:09:01.126Z,83.93
2022-12-09T11:14:03.606Z,83.09
2022-12-09T11:19:07.650Z,82.63
2022-12-09T11:24:26.145Z,82.65
2022-12-09T11:29:26.718Z,83.07
2022-12-09T11:34:29.279Z,83.01
2022-12-09T11:39:32.539Z,82.38
2022-12-09T11:44:35.356Z,81.84
2022-12-09T11:49:49.931Z,81.48
2022-12-09T11:54:57.263Z,81.41
2022-12-09T12:00:03.489Z,81.02
2022-12-09T12:05:21.621Z,80.68
2022-12-09T12:10:26.790Z,80.50
2022-12-09T12:15:34.353Z,82.09
2022-12-09T12:21:03.964Z,82.53
2022-12-09T12:26:10.597Z,82.42
2022-12-09T12:31:30.546Z,83.02
2022-12-09T12:36:40.843Z,83.08
2022-12-09T12:41:54.500Z,83.07
2022-12-09T12:47:05.910Z,82.92
2022-12-09T12:52:55.577Z,83.07
2022-12-09T12:57:55.852Z,82.96
2022-12-09T13:03:09.602Z,82.44
2022-12-09T13:08:21.358Z,81.89
2022-12-09T13:13:31.197Z,82.60
2022-12-09T13:18:36.371Z,84.31
2022-12-09T13:23:57.954Z,84.42
2022-12-09T13:29:12.119Z,85.11
2022-12-09T13:34:29.230Z,84.75
2022-12-09T13:39:59.163Z,84.87
2022-12-09T13:45:09.670Z,84.82
2022-12-09T13:50:26.759Z,85.29
2022-12-09T13:55:50.475Z,85.64
2022-12-09T14:01:06.986Z,85.95
2022-12-09T14:06:23.839Z,85.28
2022-12-09T14:11:52.011Z,85.36
2022-12-09T14:16:51.940Z,86.01
2022-12-09T14:22:24.440Z,86.73
2022-12-09T14:27:28.901Z,86.23
2022-12-09T14:32:31.393Z,86.89
2022-12-09T14:37:47.529Z,86.98
2022-12-09T14:42:53.719Z,87.21
2022-12-09T14:47:54.610Z,89.46
2022-12-09T14:52:59.536Z,91.31
2022-12-09T14:58:09.745Z,91.97
2022-12-09T15:03:36.884Z,92.61
2022-12-09T15:08:44.312Z,93.25
2022-12-09T15:13:49.060Z,94.14
2022-12-09T15:18:51.935Z,94.51
2022-12-09T15:23:52.409Z,94.42
2022-12-09T15:28:56.603Z,95.24
2022-12-09T15:33:59.620Z,96.49
2022-12-09T15:39:04.242Z,96.62
2022-12-09T15:44:11.641Z,96.53
2022-12-09T15:49:14.976Z,96.81
2022-12-09T15:54:20.968Z,97.05
2022-12-09T15:59:27.156Z,97.25
2022-12-09T16:04:31.042Z,98.26
2022-12-09T16:09:34.856Z,97.82
2022-12-09T16:15:00.304Z,99.06
2022-12-09T16:20:01.530Z,99.15
2022-12-09T16:25:17.938Z,99.00
2022-12-09T16:30:24.832Z,99.44
2022-12-09T16:35:27.434Z,99.07
2022-12-09T16:41:02.200Z,99.62
2022-12-09T16:46:39.622Z,99.01
2022-12-09T16:51:40.659Z,98.92
2022-12-09T16:56:41.950Z,98.02
2022-12-09T17:01:46.776Z,98.50
2022-12-09T17:06:46.510Z,100.00
2022-12-09T17:11:48.983Z,99.74
2022-12-09T17:16:55.924Z,99.72
2022-12-09T17:21:55.846Z,98.36
2022-12-09T17:26:56.219Z,98.81
2022-12-09T17:31:57.500Z,99.08
2022-12-09T17:36:58.624Z,98.54
2022-12-09T17:41:58.411Z,97.50
2022-12-09T17:47:01.733Z,96.90
2022-12-09T17:52:01.755Z,95.85
2022-12-09T17:57:01.703Z,95.07
2022-12-09T18:02:05.693Z,95.19
2022-12-09T18:07:06.848Z,94.48
2022-12-09T18:12:14.190Z,94.16
2022-12-09T18:17:17.518Z,93.32
2022-12-09T18:22:17.471Z,94.12
2022-12-09T18:27:17.537Z,94.30
2022-12-09T18:32:20.124Z,93.93
2022-12-09T18:37:20.464Z,93.08
2022-12-09T18:42:21.369Z,92.92
2022-12-09T18:47:24.423Z,92.34
2022-12-09T18:52:24.081Z,91.66
2022-12-09T18:57:30.546Z,91.25
2022-12-09T19:02:37.022Z,90.98
2022-12-09T19:07:36.921Z,90.20
2022-12-09T19:12:50.634Z,90.20
2022-12-09T19:17:55.178Z,90.17
2022-12-09T19:22:55.467Z,90.32
2022-12-09T19:27:55.201Z,90.38
2022-12-09T19:32:58.264Z,90.31
2022-12-09T19:38:01.682Z,89.71
2022-12-09T19:43:01.289Z,88.80
2022-12-09T19:48:05.493Z,89.08
2022-12-09T19:53:04.870Z,88.54
2022-12-09T19:58:05.065Z,89.13
2022-12-09T20:03:06.880Z,89.25
2022-12-09T20:08:15.266Z,88.99
2022-12-09T20:13:27.198Z,88.47
2022-12-09T20:18:48.139Z,88.25
2022-12-09T20:23:54.584Z,88.36
2022-12-09T20:28:58.855Z,88.08
2022-12-09T20:34:05.263Z,88.63
2022-12-09T20:39:11.626Z,89.52
2022-12-09T20:44:19.039Z,90.00
2022-12-09T20:49:27.562Z,89.59
2022-12-09T20:54:33.688Z,89.83
2022-12-09T20:59:33.454Z,90.35
2022-12-09T21:04:36.473Z,90.20
2022-12-09T21:09:39.151Z,90.25
2022-12-09T21:14:43.380Z,90.16
2022-12-09T21:19:44.546Z,90.14
2022-12-09T21:24:44.294Z,89.61
2022-12-09T21:29:48.404Z,89.28
2022-12-09T21:34:55.783Z,89.56
2022-12-09T21:39:55.475Z,89.35
2022-12-09T21:44:58.246Z,89.17
2022-12-09T21:50:04.016Z,88.72
2022-12-09T21:55:10.770Z,88.24
2022-12-09T22:00:22.942Z,88.10
2022-12-09T22:05:30.635Z,87.71
2022-12-09T22:10:42.098Z,87.41
2022-12-09T22:15:51.159Z,87.51
2022-12-09T22:21:26.035Z,87.50
2022-12-09T22:26:30.567Z,87.15
2022-12-09T22:31:40.121Z,87.03
2022-12-09T22:36:42.212Z,86.89
2022-12-09T22:42:01.993Z,86.63
2022-12-09T22:47:03.875Z,86.31
2022-12-09T22:52:10.500Z,86.25
2022-12-09T22:57:10.898Z,86.19
2022-12-09T23:02:12.122Z,86.13
2022-12-09T23:07:17.730Z,86.29
2022-12-09T23:12:27.490Z,85.95
2022-12-09T23:17:29.182Z,86.04
2022-12-09T23:22:36.948Z,86.04
2022-12-09T23:27:40.801Z,86.00
2022-12-09T23:32:45.749Z,86.06
2022-12-09T23:37:52.791Z,86.37
2022-12-09T23:43:01.776Z,85.94
2022-12-09T23:48:05.204Z,86.24
2022-12-09T23:53:11.909Z,85.83
2022-12-09T23:58:16.968Z,86.45
